Haivaro Airport


Codes: AYHO/HIT
Name: Haivaro Airport
City: Haivaro
Country: Papua New Guinea
Elevation: 180 ft.

Photos at Haivaro Airport


   Photos courtesy of SpottingLog. You can add your own sightings and photos by signing up for a free trial today.



No photos found.

Weather at Haivaro Airport


Time (UTC)DescriptionTempratureWindCloud coverageVisibilityPressureHumidity
17-Jun-2024 06:00Light Rain27°C4 mph, S97%10000m1011hPa78%
17-Jun-2024 09:00Light Rain25°C2 mph, E98%10000m1011hPa85%
17-Jun-2024 12:00Overcast Clouds24°C2 mph, E90%10000m1013hPa92%
17-Jun-2024 15:00Light Rain23°C4 mph, SE94%10000m1013hPa98%
17-Jun-2024 18:00Light Rain22°C2 mph, SE97%1975m1013hPa99%
17-Jun-2024 21:00Light Rain22°C2 mph, SE100%10000m1013hPa98%
18-Jun-2024 00:00Overcast Clouds24°C4 mph, SE96%10000m1014hPa85%
18-Jun-2024 03:00Light Rain26°C4 mph, SE88%10000m1012hPa83%
18-Jun-2024 06:00Light Rain25°C4 mph, SE94%10000m1010hPa89%
18-Jun-2024 09:00Light Rain23°C4 mph, SE97%10000m1012hPa97%
18-Jun-2024 12:00Light Rain22°C4 mph, SE98%10000m1014hPa97%
18-Jun-2024 15:00Overcast Clouds22°C4 mph, SE100%10000m1013hPa96%
18-Jun-2024 18:00Overcast Clouds22°C4 mph, SE100%10000m1012hPa95%
18-Jun-2024 21:00Overcast Clouds22°C2 mph, E100%10000m1013hPa94%
19-Jun-2024 00:00Overcast Clouds24°C4 mph, SE99%10000m1014hPa83%
19-Jun-2024 03:00Light Rain24°C4 mph, SE100%10000m1012hPa87%
19-Jun-2024 06:00Light Rain23°C4 mph, SE100%10000m1010hPa91%
19-Jun-2024 09:00Overcast Clouds23°C2 mph, E100%10000m1011hPa94%
19-Jun-2024 12:00Overcast Clouds23°C2 mph, E99%10000m1013hPa94%
19-Jun-2024 15:00Overcast Clouds22°C2 mph, E99%10000m1012hPa96%
19-Jun-2024 18:00Overcast Clouds22°C2 mph, E99%10000m1011hPa95%
19-Jun-2024 21:00Overcast Clouds22°C2 mph, E100%10000m1013hPa95%
20-Jun-2024 00:00Light Rain25°C2 mph, SE100%10000m1013hPa84%
20-Jun-2024 03:00Light Rain25°C2 mph, SE100%10000m1011hPa91%
20-Jun-2024 06:00Light Rain23°C2 mph, SE100%9084m1010hPa98%
20-Jun-2024 09:00Light Rain23°C2 mph, SE100%752m1012hPa99%
20-Jun-2024 12:00Light Rain23°C4 mph, SE100%8612m1013hPa99%
20-Jun-2024 15:00Light Rain23°C4 mph, SE100%10000m1012hPa99%
20-Jun-2024 18:00Light Rain22°C2 mph, SE100%6198m1011hPa99%
20-Jun-2024 21:00Light Rain22°C2 mph, SE100%6665m1013hPa99%
21-Jun-2024 00:00Light Rain23°C2 mph, E99%10000m1013hPa99%
21-Jun-2024 03:00Light Rain24°C2 mph, SE95%5444m1011hPa93%
21-Jun-2024 06:00Light Rain25°C4 mph, SE97%6694m1010hPa92%
21-Jun-2024 09:00Light Rain23°C2 mph, E100%10000m1012hPa98%
21-Jun-2024 12:00Light Rain23°C2 mph, SE100%10000m1014hPa98%
21-Jun-2024 15:00Light Rain23°C2 mph, SE100%10000m1013hPa99%
21-Jun-2024 18:00Light Rain23°C2 mph, E100%10000m1012hPa98%
21-Jun-2024 21:00Light Rain22°C2 mph, E99%10000m1013hPa98%
22-Jun-2024 00:00Light Rain24°C2 mph, SE100%10000m1013hPa93%
22-Jun-2024 03:00Light Rain26°C4 mph, S100%10000m1011hPa86%